createdAt,value
2023-03-16T00:02:16.403Z,27.30
2023-03-16T00:04:47.970Z,32.10
2023-03-16T00:07:20.463Z,29.10
2023-03-16T00:09:55.077Z,37.00
2023-03-16T00:12:26.843Z,20.50
2023-03-16T00:14:57.135Z,26.90
2023-03-16T00:17:29.156Z,25.30
2023-03-16T00:20:00.468Z,28.00
2023-03-16T00:22:31.157Z,24.30
2023-03-16T00:25:02.451Z,29.80
2023-03-16T00:27:31.351Z,24.10
2023-03-16T00:30:03.966Z,24.10
2023-03-16T00:32:36.053Z,23.30
2023-03-16T00:35:09.399Z,24.30
2023-03-16T00:37:41.080Z,26.40
2023-03-16T00:40:15.172Z,35.40
2023-03-16T00:42:47.972Z,25.40
2023-03-16T00:45:19.584Z,24.30
2023-03-16T00:47:49.511Z,22.30
2023-03-16T00:50:22.691Z,21.00
2023-03-16T00:52:54.376Z,17.10
2023-03-16T00:55:25.194Z,21.80
2023-03-16T00:57:55.494Z,23.50
2023-03-16T01:00:29.065Z,29.00
2023-03-16T01:02:59.703Z,22.90
2023-03-16T01:05:29.358Z,17.30
2023-03-16T01:08:00.343Z,21.90
2023-03-16T01:10:33.413Z,22.10
2023-03-16T01:13:03.392Z,21.80
2023-03-16T01:15:35.251Z,26.20
2023-03-16T01:18:06.844Z,24.90
2023-03-16T01:20:37.270Z,22.00
2023-03-16T01:23:10.919Z,23.00
2023-03-16T01:25:41.738Z,26.00
2023-03-16T01:28:13.954Z,20.60
2023-03-16T01:30:44.531Z,21.70
2023-03-16T01:33:13.768Z,17.50
2023-03-16T01:35:55.577Z,22.00
2023-03-16T01:38:27.343Z,26.00
2023-03-16T01:40:57.481Z,17.40
2023-03-16T01:43:31.086Z,24.60
2023-03-16T01:46:07.668Z,19.50
2023-03-16T01:48:45.850Z,20.80
2023-03-16T01:51:34.936Z,18.00
2023-03-16T01:54:23.092Z,29.40
2023-03-16T01:57:15.741Z,23.50
2023-03-16T02:00:00.333Z,18.60
2023-03-16T02:02:33.142Z,23.90
2023-03-16T02:05:16.594Z,18.70
2023-03-16T02:07:53.352Z,24.00
2023-03-16T02:10:24.760Z,20.40
2023-03-16T02:12:55.347Z,20.60
2023-03-16T02:15:26.570Z,24.10
2023-03-16T02:18:01.837Z,21.00
2023-03-16T02:20:49.838Z,19.00
2023-03-16T02:23:22.560Z,21.50
2023-03-16T02:26:04.837Z,32.40
2023-03-16T02:29:11.611Z,24.40
2023-03-16T02:31:43.237Z,20.60
2023-03-16T02:34:17.322Z,19.50
2023-03-16T02:36:50.537Z,21.90
2023-03-16T02:39:21.674Z,21.50
2023-03-16T02:41:53.298Z,19.50
2023-03-16T02:44:28.132Z,20.70
2023-03-16T02:47:06.690Z,20.40
2023-03-16T02:49:43.662Z,18.70
2023-03-16T02:52:14.443Z,22.50
2023-03-16T02:54:45.806Z,21.30
2023-03-16T02:57:17.193Z,21.60
2023-03-16T02:59:47.917Z,25.00
2023-03-16T03:02:17.241Z,23.80
2023-03-16T03:04:47.360Z,20.10
2023-03-16T03:07:19.195Z,21.80
2023-03-16T03:10:04.691Z,15.20
2023-03-16T03:12:35.637Z,20.30
2023-03-16T03:15:08.560Z,21.80
2023-03-16T03:17:45.592Z,20.90
2023-03-16T03:20:18.360Z,18.20
2023-03-16T03:22:53.057Z,20.70
2023-03-16T03:25:25.286Z,19.50
2023-03-16T03:28:00.233Z,27.20
2023-03-16T03:30:33.595Z,21.10
2023-03-16T03:33:07.106Z,25.10
2023-03-16T03:35:39.349Z,23.50
2023-03-16T03:38:12.000Z,19.80
2023-03-16T03:40:43.671Z,20.70
2023-03-16T03:43:15.663Z,21.90
2023-03-16T03:45:47.169Z,21.00
2023-03-16T03:48:19.325Z,23.50
2023-03-16T03:50:50.932Z,19.40
2023-03-16T03:53:48.219Z,24.60
2023-03-16T03:56:25.963Z,24.50
2023-03-16T03:58:55.089Z,22.70
2023-03-16T04:01:35.541Z,28.30
2023-03-16T04:04:09.145Z,22.70
2023-03-16T04:06:38.809Z,21.90
2023-03-16T04:09:09.233Z,24.60
2023-03-16T04:11:38.771Z,22.90
2023-03-16T04:14:12.190Z,18.60
2023-03-16T04:16:41.546Z,23.70
2023-03-16T04:19:14.263Z,24.50
2023-03-16T04:21:45.591Z,33.40
2023-03-16T04:24:15.724Z,97.90
2023-03-16T04:26:48.213Z,269.30
2023-03-16T04:29:19.031Z,26.00
2023-03-16T04:31:52.043Z,29.10
2023-03-16T04:34:26.087Z,22.10
2023-03-16T04:36:58.865Z,21.50
2023-03-16T04:39:30.998Z,18.10
2023-03-16T04:42:02.042Z,19.60
2023-03-16T04:44:34.800Z,24.80
2023-03-16T04:47:10.164Z,29.10
2023-03-16T04:49:47.429Z,19.60
2023-03-16T04:52:23.058Z,80.70
2023-03-16T04:54:58.251Z,81.90
2023-03-16T04:57:27.932Z,147.10
2023-03-16T04:59:58.516Z,45.40
2023-03-16T05:02:41.881Z,30.80
2023-03-16T05:05:15.674Z,52.10
2023-03-16T05:07:45.831Z,67.50
2023-03-16T05:10:19.192Z,28.80
2023-03-16T05:12:54.269Z,64.50
2023-03-16T05:15:27.233Z,196.40
2023-03-16T05:18:03.436Z,34.20
2023-03-16T05:20:35.392Z,25.70
2023-03-16T05:23:05.423Z,25.70
2023-03-16T05:25:39.102Z,22.10
2023-03-16T05:28:08.380Z,25.20
2023-03-16T05:30:45.793Z,28.30
2023-03-16T05:33:22.054Z,24.60
2023-03-16T05:35:53.526Z,49.00
2023-03-16T05:38:26.449Z,21.00
2023-03-16T05:41:03.318Z,27.60
2023-03-16T05:43:50.810Z,30.70
2023-03-16T05:46:21.028Z,25.50
2023-03-16T05:48:54.034Z,29.30
2023-03-16T05:51:27.702Z,32.20
2023-03-16T05:53:59.600Z,29.70
2023-03-16T05:56:36.859Z,32.60
2023-03-16T05:59:07.433Z,251.40
2023-03-16T06:01:41.295Z,37.90
2023-03-16T06:04:13.601Z,84.00
2023-03-16T06:06:56.953Z,27.30
2023-03-16T06:09:29.791Z,29.20
2023-03-16T06:12:01.142Z,25.80
2023-03-16T06:14:37.804Z,92.80
2023-03-16T06:17:08.923Z,34.00
2023-03-16T06:19:39.662Z,31.60
2023-03-16T06:22:12.010Z,80.00
2023-03-16T06:24:42.690Z,39.40
2023-03-16T06:27:15.030Z,25.70
2023-03-16T06:29:57.322Z,26.40
2023-03-16T06:32:28.063Z,21.20
2023-03-16T06:35:00.126Z,24.70
2023-03-16T06:37:34.483Z,20.10
2023-03-16T06:40:09.093Z,17.50
2023-03-16T06:42:45.112Z,18.90
2023-03-16T06:45:17.887Z,18.70
2023-03-16T06:47:48.687Z,18.70
2023-03-16T06:50:19.125Z,19.70
2023-03-16T06:52:49.974Z,19.60
2023-03-16T06:55:21.485Z,15.10
2023-03-16T06:57:51.189Z,22.50
2023-03-16T07:00:22.468Z,16.20
2023-03-16T07:02:53.526Z,17.30
2023-03-16T07:05:25.491Z,15.30
2023-03-16T07:07:57.017Z,15.80
2023-03-16T07:10:28.647Z,18.70
2023-03-16T07:12:59.007Z,17.00
2023-03-16T07:15:28.895Z,15.60
2023-03-16T07:17:59.724Z,16.70
2023-03-16T07:20:31.722Z,14.60
2023-03-16T07:23:05.651Z,14.20
2023-03-16T07:25:35.868Z,13.50
2023-03-16T07:28:07.297Z,12.90
2023-03-16T07:30:45.859Z,11.60
2023-03-16T07:33:26.888Z,13.50
2023-03-16T07:35:56.545Z,11.50
2023-03-16T07:38:25.918Z,15.20
2023-03-16T07:40:55.187Z,11.40
2023-03-16T07:43:25.278Z,13.50
2023-03-16T07:45:57.494Z,13.70
2023-03-16T07:48:26.984Z,12.40
2023-03-16T07:51:00.710Z,11.30
2023-03-16T07:53:30.633Z,11.30
2023-03-16T07:56:15.972Z,13.80
2023-03-16T07:58:48.629Z,19.50
2023-03-16T08:01:22.206Z,14.70
2023-03-16T08:03:54.177Z,19.00
2023-03-16T08:06:27.189Z,13.70
2023-03-16T08:08:57.349Z,14.20
2023-03-16T08:16:25.806Z,16.80
2023-03-16T08:18:58.792Z,16.50
2023-03-16T08:21:30.744Z,15.80
2023-03-16T08:24:02.277Z,12.60
2023-03-16T08:26:32.117Z,11.70
2023-03-16T08:29:04.593Z,16.20
2023-03-16T08:31:44.500Z,52.80
2023-03-16T08:34:18.654Z,16.60
2023-03-16T08:43:07.030Z,13.80
2023-03-16T08:45:36.444Z,17.40
2023-03-16T08:48:08.547Z,11.30
2023-03-16T08:50:44.477Z,16.00
2023-03-16T08:53:14.888Z,13.30
2023-03-16T08:55:44.387Z,11.30
2023-03-16T08:58:15.798Z,11.80
2023-03-16T09:00:48.261Z,12.00
2023-03-16T09:03:20.235Z,11.80
2023-03-16T09:05:53.002Z,13.00
2023-03-16T09:08:24.655Z,11.50
2023-03-16T09:11:06.419Z,11.70
2023-03-16T09:13:41.832Z,11.30
2023-03-16T09:16:15.254Z,13.20
2023-03-16T09:18:45.425Z,17.70
2023-03-16T09:21:16.119Z,12.30
2023-03-16T09:23:46.518Z,12.00
2023-03-16T09:26:19.978Z,11.70
2023-03-16T09:28:55.866Z,13.90
2023-03-16T09:31:27.356Z,15.60
2023-03-16T09:34:02.009Z,11.20
2023-03-16T09:36:34.951Z,11.00
2023-03-16T09:39:04.959Z,13.90
2023-03-16T09:41:49.750Z,10.40
2023-03-16T09:44:56.599Z,12.40
2023-03-16T09:47:31.389Z,8.10
2023-03-16T09:50:06.321Z,11.60
2023-03-16T09:52:56.352Z,11.00
2023-03-16T09:55:29.946Z,14.70
2023-03-16T09:58:06.429Z,11.20
2023-03-16T10:00:42.475Z,11.90
2023-03-16T10:03:36.619Z,13.40
2023-03-16T10:06:12.036Z,12.00
2023-03-16T10:08:46.112Z,11.90
2023-03-16T10:11:40.685Z,11.50
2023-03-16T10:14:28.588Z,10.60
2023-03-16T10:17:19.341Z,13.70
2023-03-16T10:19:55.011Z,14.90
2023-03-16T10:22:36.071Z,10.40
2023-03-16T10:25:13.432Z,8.90
2023-03-16T10:27:46.586Z,12.00
2023-03-16T10:30:30.470Z,8.50
2023-03-16T10:33:19.083Z,10.00
2023-03-16T10:35:59.047Z,14.90
2023-03-16T10:38:59.656Z,13.70
2023-03-16T10:41:37.295Z,9.60
2023-03-16T10:44:40.741Z,11.10
2023-03-16T10:50:38.577Z,12.80
2023-03-16T10:53:42.198Z,11.20
2023-03-16T10:56:23.037Z,11.80
2023-03-16T10:58:53.146Z,11.00
2023-03-16T11:01:33.103Z,13.70
2023-03-16T11:04:16.029Z,13.00
2023-03-16T11:06:58.787Z,15.30
2023-03-16T11:09:39.182Z,12.70
2023-03-16T11:12:23.589Z,10.00
2023-03-16T11:14:55.496Z,10.70
2023-03-16T11:17:37.086Z,15.00
2023-03-16T11:20:18.229Z,11.30
2023-03-16T11:22:50.978Z,18.40
2023-03-16T11:25:29.749Z,13.00
2023-03-16T11:28:26.114Z,19.20
2023-03-16T11:30:59.792Z,10.50
2023-03-16T11:33:32.530Z,7.70
2023-03-16T11:36:49.961Z,9.40
2023-03-16T11:39:45.197Z,11.20
2023-03-16T11:42:47.925Z,7.00
2023-03-16T11:45:23.688Z,8.80
2023-03-16T11:48:19.936Z,9.00
2023-03-16T11:51:30.940Z,7.40
2023-03-16T11:54:25.550Z,7.40
2023-03-16T11:57:02.541Z,11.60
2023-03-16T11:59:32.309Z,9.20
2023-03-16T12:02:29.964Z,10.30
2023-03-16T12:05:08.260Z,13.70
2023-03-16T12:07:57.766Z,10.60
2023-03-16T12:10:40.213Z,11.10
2023-03-16T12:13:22.213Z,13.40
2023-03-16T12:16:16.987Z,10.70
2023-03-16T12:18:53.615Z,8.20
2023-03-16T12:21:31.959Z,8.00
2023-03-16T12:24:13.141Z,9.50
2023-03-16T12:26:45.889Z,6.70
2023-03-16T12:29:38.415Z,7.10
2023-03-16T12:32:41.556Z,8.10
2023-03-16T12:35:53.293Z,7.30
2023-03-16T12:38:51.171Z,8.70
2023-03-16T12:41:31.018Z,5.30
2023-03-16T12:44:33.494Z,6.20
2023-03-16T12:47:21.928Z,3.10
2023-03-16T12:49:54.749Z,10.20
2023-03-16T12:52:24.635Z,6.80
2023-03-16T12:55:08.344Z,5.10
2023-03-16T12:57:43.772Z,9.70
2023-03-16T13:00:17.042Z,11.70
2023-03-16T13:02:57.881Z,9.10
2023-03-16T13:05:39.481Z,9.60
2023-03-16T13:08:19.367Z,7.40
2023-03-16T13:11:18.501Z,4.10
2023-03-16T13:14:02.948Z,9.40
2023-03-16T13:16:36.752Z,9.20
2023-03-16T13:19:32.938Z,17.80
2023-03-16T13:22:28.860Z,10.10
2023-03-16T13:25:37.358Z,6.30
2023-03-16T13:28:15.692Z,5.80
2023-03-16T13:30:50.571Z,6.20
2023-03-16T13:33:32.730Z,6.20
2023-03-16T13:36:14.792Z,6.60
2023-03-16T13:39:19.662Z,6.10
2023-03-16T13:42:22.969Z,6.60
2023-03-16T13:44:58.788Z,10.50
2023-03-16T13:47:29.018Z,9.10
2023-03-16T13:50:01.471Z,7.90
2023-03-16T13:52:36.635Z,7.10
2023-03-16T13:55:17.212Z,6.50
2023-03-16T13:57:48.411Z,9.90
2023-03-16T14:00:26.251Z,9.00
2023-03-16T14:02:58.123Z,7.30
2023-03-16T14:05:33.857Z,6.60
2023-03-16T14:08:05.341Z,6.80
2023-03-16T14:10:39.100Z,9.90
2023-03-16T14:13:24.544Z,9.50
2023-03-16T14:16:19.181Z,10.80
2023-03-16T14:19:14.474Z,7.00
2023-03-16T14:21:49.666Z,7.60
2023-03-16T14:24:35.882Z,8.20
2023-03-16T14:27:40.856Z,6.80
2023-03-16T14:30:18.853Z,10.90
2023-03-16T14:33:01.951Z,8.60
2023-03-16T14:35:45.608Z,9.50
2023-03-16T14:38:24.659Z,9.10
2023-03-16T14:40:57.292Z,10.30
2023-03-16T14:43:33.771Z,9.40
2023-03-16T14:46:07.736Z,9.40
2023-03-16T14:48:38.223Z,7.60
2023-03-16T14:51:20.882Z,11.70
2023-03-16T14:53:48.708Z,9.60
2023-03-16T14:56:17.340Z,7.80
2023-03-16T14:58:45.314Z,10.80
2023-03-16T15:01:18.655Z,8.80
2023-03-16T15:04:02.157Z,27.20
2023-03-16T15:06:35.439Z,27.30
2023-03-16T15:09:08.088Z,19.30
2023-03-16T15:11:38.886Z,29.10
2023-03-16T15:14:36.740Z,20.20
2023-03-16T15:17:07.028Z,7.40
2023-03-16T15:19:37.652Z,8.60
2023-03-16T15:22:13.918Z,15.10
2023-03-16T15:24:46.743Z,7.60
2023-03-16T15:27:27.150Z,12.60
2023-03-16T15:30:01.221Z,13.40
2023-03-16T15:32:32.274Z,7.70
2023-03-16T15:35:01.974Z,11.70
2023-03-16T15:37:33.224Z,8.80
2023-03-16T15:40:06.563Z,15.20
2023-03-16T15:42:38.377Z,12.30
2023-03-16T15:45:21.232Z,11.90
2023-03-16T15:47:53.798Z,10.20
2023-03-16T15:50:25.648Z,9.20
2023-03-16T15:53:13.268Z,7.60
2023-03-16T15:55:50.463Z,11.80
2023-03-16T15:58:25.929Z,21.10
2023-03-16T16:01:04.080Z,72.60
2023-03-16T16:03:34.591Z,85.90
2023-03-16T16:06:04.748Z,111.40
2023-03-16T16:08:34.603Z,120.60
2023-03-16T16:11:10.390Z,87.90
2023-03-16T16:13:44.934Z,66.60
2023-03-16T16:16:18.207Z,254.70
2023-03-16T16:18:49.189Z,172.30
2023-03-16T16:21:31.527Z,197.30
2023-03-16T16:24:06.637Z,144.70
2023-03-16T16:26:53.762Z,138.50
2023-03-16T16:29:27.546Z,382.80
2023-03-16T16:32:01.057Z,235.70
2023-03-16T16:34:32.909Z,87.40
2023-03-16T16:37:09.900Z,382.00
2023-03-16T16:39:50.633Z,413.60
2023-03-16T16:42:35.884Z,327.10
2023-03-16T16:45:28.625Z,114.80
2023-03-16T16:48:13.957Z,320.60
2023-03-16T16:51:01.039Z,436.40
2023-03-16T16:53:36.110Z,510.30
2023-03-16T16:56:21.993Z,206.00
2023-03-16T16:59:00.503Z,73.50
2023-03-16T17:01:37.795Z,261.60
2023-03-16T17:04:26.914Z,423.80
2023-03-16T17:07:06.566Z,468.30
2023-03-16T17:09:48.237Z,764.10
2023-03-16T17:12:34.166Z,847.90
2023-03-16T17:15:47.871Z,407.20
2023-03-16T17:18:28.764Z,140.10
2023-03-16T17:21:05.498Z,128.90
2023-03-16T17:23:58.203Z,138.90
2023-03-16T17:26:37.775Z,57.00
2023-03-16T17:29:46.608Z,63.00
2023-03-16T17:32:26.844Z,66.90
2023-03-16T17:35:05.589Z,58.40
2023-03-16T17:37:44.197Z,43.90
2023-03-16T17:40:32.850Z,37.00
2023-03-16T17:43:32.189Z,58.20
2023-03-16T17:46:12.272Z,49.20
2023-03-16T17:48:51.741Z,41.00
2023-03-16T17:51:27.768Z,83.20
2023-03-16T17:53:59.247Z,139.30
2023-03-16T17:56:32.558Z,220.10
2023-03-16T17:59:22.143Z,77.60
2023-03-16T18:02:01.440Z,58.10
2023-03-16T18:04:37.283Z,61.50
2023-03-16T18:07:17.689Z,64.80
2023-03-16T18:09:50.095Z,42.80
2023-03-16T18:12:27.786Z,47.10
2023-03-16T18:15:03.385Z,63.10
2023-03-16T18:17:37.135Z,38.50
2023-03-16T18:20:37.440Z,26.90
2023-03-16T18:23:26.675Z,77.30
2023-03-16T18:26:04.267Z,108.30
2023-03-16T18:28:39.917Z,52.40
2023-03-16T18:31:29.745Z,56.60
2023-03-16T18:34:07.787Z,62.30
2023-03-16T18:36:50.098Z,49.80
2023-03-16T18:39:23.261Z,45.30
2023-03-16T18:41:59.135Z,55.80
2023-03-16T18:44:33.582Z,146.80
2023-03-16T18:47:09.976Z,127.60
2023-03-16T18:49:52.353Z,72.50
2023-03-16T18:52:33.470Z,58.10
2023-03-16T18:55:21.836Z,81.00
2023-03-16T18:57:57.706Z,38.40
2023-03-16T19:00:31.571Z,33.70
2023-03-16T19:03:07.694Z,36.20
2023-03-16T19:05:42.734Z,63.90
2023-03-16T19:08:18.256Z,29.40
2023-03-16T19:10:55.088Z,18.10
2023-03-16T19:13:28.893Z,23.50
2023-03-16T19:16:04.419Z,28.10
2023-03-16T19:18:43.926Z,171.10
2023-03-16T19:21:25.415Z,132.40
2023-03-16T19:24:06.567Z,76.30
2023-03-16T19:26:40.526Z,42.70
2023-03-16T19:29:16.353Z,27.70
2023-03-16T19:31:59.841Z,16.00
2023-03-16T19:34:36.826Z,22.30
2023-03-16T19:37:16.482Z,102.80
2023-03-16T19:39:54.054Z,46.30
2023-03-16T19:42:37.714Z,51.00
2023-03-16T19:45:23.855Z,58.30
2023-03-16T19:47:58.097Z,41.50
2023-03-16T19:50:32.169Z,45.20
2023-03-16T19:53:14.616Z,79.20
2023-03-16T19:55:48.577Z,120.50
2023-03-16T19:58:36.535Z,92.00
2023-03-16T20:01:30.412Z,57.40
2023-03-16T20:04:06.630Z,48.10
2023-03-16T20:06:41.116Z,64.40
2023-03-16T20:09:12.559Z,78.50
2023-03-16T20:11:58.716Z,82.80
2023-03-16T20:14:39.860Z,97.00
2023-03-16T20:17:21.473Z,95.00
2023-03-16T20:19:54.959Z,88.90
2023-03-16T20:22:30.572Z,75.70
2023-03-16T20:25:02.928Z,96.00
2023-03-16T20:27:46.256Z,55.10
2023-03-16T20:30:21.183Z,38.90
2023-03-16T20:32:54.021Z,28.00
2023-03-16T20:35:29.474Z,27.30
2023-03-16T20:38:02.682Z,259.50
2023-03-16T20:40:36.534Z,94.70
2023-03-16T20:43:24.812Z,52.00
2023-03-16T20:46:08.710Z,73.40
2023-03-16T20:48:45.025Z,109.20
2023-03-16T20:51:19.550Z,104.70
2023-03-16T20:53:54.675Z,189.10
2023-03-16T20:56:29.029Z,99.80
2023-03-16T20:59:00.329Z,24.60
2023-03-16T21:01:34.490Z,25.70
2023-03-16T21:04:23.054Z,56.30
2023-03-16T21:06:57.260Z,107.60
2023-03-16T21:09:34.467Z,61.00
2023-03-16T21:12:25.820Z,33.30
2023-03-16T21:15:01.250Z,30.40
2023-03-16T21:17:38.716Z,28.90
2023-03-16T21:20:21.637Z,30.50
2023-03-16T21:22:53.634Z,26.80
2023-03-16T21:25:35.137Z,30.80
2023-03-16T21:28:06.265Z,30.50
2023-03-16T21:30:57.040Z,30.90
2023-03-16T21:33:39.975Z,31.80
2023-03-16T21:36:19.900Z,25.40
2023-03-16T21:38:53.345Z,32.00
2023-03-16T21:41:24.220Z,34.50
2023-03-16T21:43:57.220Z,31.60
2023-03-16T21:46:26.821Z,32.90
2023-03-16T21:48:56.365Z,44.10
2023-03-16T21:51:31.906Z,176.90
2023-03-16T21:54:02.097Z,91.70
2023-03-16T21:56:34.454Z,61.30
2023-03-16T21:59:03.974Z,48.20
2023-03-16T22:01:38.248Z,32.90
2023-03-16T22:04:16.996Z,27.60
2023-03-16T22:06:47.678Z,26.20
2023-03-16T22:09:22.905Z,26.40
2023-03-16T22:11:53.627Z,21.80
2023-03-16T22:14:26.054Z,20.70
2023-03-16T22:16:57.447Z,29.00
2023-03-16T22:19:27.986Z,56.20
2023-03-16T22:21:57.326Z,51.90
2023-03-16T22:24:29.623Z,51.50
2023-03-16T22:27:01.506Z,44.20
2023-03-16T22:29:34.202Z,34.30
2023-03-16T22:32:11.007Z,46.20
2023-03-16T22:34:46.989Z,72.80
2023-03-16T22:37:21.426Z,66.80
2023-03-16T22:39:53.419Z,53.60
2023-03-16T22:42:43.866Z,44.70
2023-03-16T22:45:35.006Z,44.30
2023-03-16T22:48:23.393Z,257.20
2023-03-16T22:50:55.968Z,241.10
2023-03-16T22:53:56.546Z,106.10
2023-03-16T22:56:28.187Z,113.00
2023-03-16T22:59:02.663Z,177.40
2023-03-16T23:01:38.101Z,142.40
2023-03-16T23:04:38.131Z,164.90
2023-03-16T23:07:20.628Z,135.70
2023-03-16T23:09:51.129Z,80.90
2023-03-16T23:12:22.625Z,43.90
2023-03-16T23:14:54.088Z,32.80
2023-03-16T23:17:23.173Z,28.80
2023-03-16T23:19:54.896Z,51.80
2023-03-16T23:22:24.950Z,51.40
2023-03-16T23:24:57.182Z,73.50
2023-03-16T23:27:26.568Z,55.10
2023-03-16T23:29:57.107Z,71.40
2023-03-16T23:32:28.194Z,68.20
2023-03-16T23:35:01.395Z,32.20
2023-03-16T23:37:32.961Z,25.30
2023-03-16T23:40:06.277Z,24.50
2023-03-16T23:42:40.056Z,19.30
2023-03-16T23:45:32.027Z,49.20
2023-03-16T23:48:07.428Z,84.50
2023-03-16T23:50:40.676Z,83.90
2023-03-16T23:53:18.010Z,75.30
2023-03-16T23:55:50.206Z,86.20
2023-03-16T23:58:19.844Z,87.90
